Time;durP1;ratioP1;P1;durP2;ratioP2;P2;SDS_P1;SDS_P2;PMS_P1;PMS_P2;Temp;Humidity;BMP_temperature;BMP_pressure;BME280_temperature;BME280_humidity;BME280_pressure;Samples;Min_cycle;Max_cycle;Signal;HPM_P1;HPM_P2
2022/11/14 00:00:59;;;;;;;4.32;4.13;;;;;;;2.09;100.00;101057.34;6108925;23;20022;-74
2022/11/14 00:03:25;;;;;;;5.57;4.30;;;;;;;1.82;100.00;101019.69;6089126;23;20360;-72
2022/11/14 00:05:52;;;;;;;3.83;3.63;;;;;;;1.92;100.00;101029.91;6114051;23;20017;-73
2022/11/14 00:08:22;;;;;;;4.50;4.00;;;;;;;2.10;100.00;101061.63;6093725;23;20528;-74
2022/11/14 00:10:50;;;;;;;5.78;4.68;;;;;;;2.17;100.00;101065.88;6094766;23;20013;-75
2022/11/14 00:13:18;;;;;;;4.43;4.13;;;;;;;2.17;100.00;101058.97;6086693;23;20064;-73
2022/11/14 00:15:49;;;;;;;5.53;5.13;;;;;;;2.19;100.00;101062.38;6091948;23;20012;-73
2022/11/14 00:18:16;;;;;;;6.38;5.90;;;;;;;2.08;100.00;101037.50;6096849;23;20288;-72
2022/11/14 00:20:46;;;;;;;3.97;3.78;;;;;;;1.82;100.00;100991.22;6086799;23;20017;-73
2022/11/14 00:23:13;;;;;;;4.53;4.22;;;;;;;2.27;100.00;101061.44;6111074;23;20017;-74
2022/11/14 00:25:39;;;;;;;4.88;4.53;;;;;;;2.20;100.00;101042.53;6102757;23;20096;-75
2022/11/14 00:28:07;;;;;;;4.75;4.45;;;;;;;2.33;100.00;101048.44;6117597;23;20668;-74
2022/11/14 00:30:34;;;;;;;5.45;5.05;;;;;;;2.31;100.00;101048.44;6089167;23;20663;-74
2022/11/14 00:33:00;;;;;;;8.20;4.78;;;;;;;1.78;100.00;100972.28;6098061;23;20021;-74
2022/11/14 00:35:27;;;;;;;5.70;5.32;;;;;;;2.30;100.00;101048.44;6120885;23;20642;-74
2022/11/14 00:37:53;;;;;;;5.57;5.18;;;;;;;2.13;100.00;101020.19;6115002;23;20017;-73
2022/11/14 00:40:20;;;;;;;6.20;4.43;;;;;;;2.26;100.00;101039.84;6069606;23;20021;-73
2022/11/14 00:42:46;;;;;;;4.50;4.20;;;;;;;1.48;100.00;100913.97;6107260;23;20479;-73
2022/11/14 00:45:13;;;;;;;4.90;4.50;;;;;;;1.93;100.00;100981.59;6119931;23;20250;-73
2022/11/14 00:47:39;;;;;;;4.45;4.15;;;;;;;1.69;100.00;100952.53;6105289;23;20018;-74
2022/11/14 00:50:06;;;;;;;5.10;4.75;;;;;;;1.96;100.00;100991.91;6085557;23;20037;-74
2022/11/14 00:52:32;;;;;;;5.32;4.40;;;;;;;2.07;100.00;100999.56;6112232;23;20014;-73
2022/11/14 00:54:59;;;;;;;3.80;3.60;;;;;;;1.58;100.00;100918.16;6118849;23;20036;-75
2022/11/14 00:57:25;;;;;;;4.47;4.22;;;;;;;2.23;100.00;101042.50;6093669;23;20057;-74
2022/11/14 00:59:54;;;;;;;3.88;3.67;;;;;;;2.19;100.00;101015.78;6114614;23;20033;-75
2022/11/14 01:02:21;;;;;;;5.00;4.70;;;;;;;1.91;100.00;100970.41;6099467;23;20080;-75
2022/11/14 01:04:48;;;;;;;4.18;3.88;;;;;;;1.74;100.00;100955.91;6112721;23;20107;-76
2022/11/14 01:07:14;;;;;;;5.40;5.00;;;;;;;1.90;100.00;101002.31;6065197;23;20068;-74
2022/11/14 01:09:41;;;;;;;4.75;4.35;;;;;;;1.89;100.00;101016.16;6118477;23;20048;-75
2022/11/14 01:12:08;;;;;;;4.18;3.88;;;;;;;1.56;100.00;100961.31;6095142;23;20025;-74
2022/11/14 01:14:34;;;;;;;4.07;3.78;;;;;;;1.15;100.00;100900.53;6104338;23;20622;-74
2022/11/14 01:17:00;;;;;;;4.68;4.32;;;;;;;1.44;100.00;100945.91;6115717;23;20018;-76
2022/11/14 01:19:27;;;;;;;5.22;4.82;;;;;;;1.77;100.00;101007.66;6092922;23;20034;-74
2022/11/14 01:21:53;;;;;;;5.68;5.03;;;;;;;1.74;100.00;100996.47;6117069;23;20067;-75
2022/11/14 01:24:20;;;;;;;4.35;4.05;;;;;;;1.14;100.00;100906.56;6087889;23;20681;-75
2022/11/14 01:26:47;;;;;;;5.22;4.15;;;;;;;1.70;100.00;100974.94;6113517;23;20613;-74
2022/11/14 01:29:13;;;;;;;4.45;4.15;;;;;;;1.79;100.00;100982.59;6117939;23;20009;-75
2022/11/14 01:31:40;;;;;;;4.18;3.95;;;;;;;1.90;100.00;100982.47;6093445;23;20048;-75
2022/11/14 01:34:07;;;;;;;5.35;4.95;;;;;;;1.73;100.00;100920.59;6089929;23;20525;-75
2022/11/14 01:36:33;;;;;;;4.47;4.07;;;;;;;1.49;100.00;100861.41;6119809;23;20462;-73
2022/11/14 01:39:00;;;;;;;4.03;3.83;;;;;;;1.42;100.00;100819.22;6109855;23;20017;-74
2022/11/14 01:41:26;;;;;;;4.70;4.45;;;;;;;1.51;100.00;100829.47;6067092;23;20052;-72
2022/11/14 01:43:52;;;;;;;5.20;4.50;;;;;;;2.11;100.00;100895.09;6114605;23;20556;-74
2022/11/14 01:46:25;;;;;;;4.70;4.40;;;;;;;2.01;100.00;100863.28;6090865;23;20507;-74
2022/11/14 01:49:14;;;;;;;5.15;4.70;;;;;;;2.55;100.00;100950.56;6078248;23;20087;-73
2022/11/14 01:52:03;;;;;;;3.67;3.50;;;;;;;1.46;100.00;100776.94;6090471;23;20010;-74
2022/11/14 01:54:35;;;;;;;4.03;3.83;;;;;;;2.59;100.00;100952.22;6113622;23;20026;-73
2022/11/14 01:57:05;;;;;;;4.82;4.53;;;;;;;2.27;100.00;100901.75;6116511;23;20703;-75
2022/11/14 01:59:43;;;;;;;4.97;4.10;;;;;;;2.60;100.00;100959.09;6118533;23;20020;-75
2022/11/14 02:02:15;;;;;;;4.90;4.50;;;;;;;2.59;100.00;100962.59;6098254;23;20025;-74
2022/11/14 02:04:46;;;;;;;4.38;4.18;;;;;;;2.58;100.00;100966.03;6111686;23;20013;-74
2022/11/14 02:07:13;;;;;;;3.90;3.70;;;;;;;2.27;100.00;100938.00;6087375;23;20029;-74
2022/11/14 02:09:44;;;;;;;3.80;3.60;;;;;;;2.51;100.00;100975.66;6118452;23;20183;-74
2022/11/14 02:12:13;;;;;;;4.88;4.47;;;;;;;2.51;100.00;100979.97;6115604;23;20023;-74
2022/11/14 02:14:44;;;;;;;4.25;4.05;;;;;;;2.36;100.00;100968.94;6089178;23;20029;-74
2022/11/14 02:17:11;;;;;;;4.60;4.30;;;;;;;2.10;100.00;100943.41;6115058;23;20638;-74
2022/11/14 02:20:09;;;;;;;4.60;4.20;;;;;;;2.49;100.00;100986.91;6111765;23;20033;-73
2022/11/14 02:22:36;;;;;;;3.75;3.55;;;;;;;2.42;100.00;100980.09;6088976;23;20091;-73
2022/11/14 02:25:03;;;;;;;4.65;4.35;;;;;;;1.98;100.00;100900.44;6115671;23;20037;-74
2022/11/14 02:27:32;;;;;;;3.72;3.53;;;;;;;2.30;100.00;100976.78;6088544;23;20029;-73
2022/11/14 02:30:25;;;;;;;3.70;3.50;;;;;;;2.44;100.00;100983.53;6115993;23;20031;-73
2022/11/14 02:32:52;;;;;;;3.50;3.30;;;;;;;1.67;100.00;100875.84;6082303;23;20025;-74
2022/11/14 02:35:39;;;;;;;4.50;4.20;;;;;;;2.40;100.00;100988.72;6076958;23;20039;-73
2022/11/14 02:38:06;;;;;;;4.82;4.50;;;;;;;1.92;100.00;100921.19;6113836;23;20391;-74
2022/11/14 02:40:32;;;;;;;9.57;4.00;;;;;;;1.95;100.00;100926.34;6116668;23;20029;-75
2022/11/14 02:42:59;;;;;;;4.55;4.07;;;;;;;1.84;100.00;100902.31;6081008;23;20077;-74
2022/11/14 02:45:26;;;;;;;3.67;3.47;;;;;;;1.69;100.00;100900.81;6124295;23;20037;-75
2022/11/14 02:47:52;;;;;;;5.30;4.93;;;;;;;2.24;100.00;100982.06;6089267;23;20105;-73
2022/11/14 02:50:18;;;;;;;4.05;3.75;;;;;;;1.19;100.00;100809.16;6107367;23;20404;-74
2022/11/14 02:52:45;;;;;;;4.43;4.13;;;;;;;2.02;100.00;100946.97;6115372;23;20605;-73
2022/11/14 02:55:11;;;;;;;4.13;3.83;;;;;;;2.27;100.00;100981.19;6108686;23;20033;-75
2022/11/14 02:57:38;;;;;;;4.13;3.92;;;;;;;2.14;100.00;100957.16;6117791;23;20083;-73
2022/11/14 03:00:05;;;;;;;4.20;4.00;;;;;;;2.24;100.00;100991.56;6119065;23;20100;-74
2022/11/14 03:02:39;;;;;;;4.45;3.67;;;;;;;1.86;100.00;100936.81;6117042;23;20076;-74
2022/11/14 03:05:06;;;;;;;4.10;3.88;;;;;;;1.60;100.00;100900.91;6085486;23;20038;-73
2022/11/14 03:07:33;;;;;;;3.95;3.75;;;;;;;1.63;100.00;100892.28;6110177;23;20083;-74
2022/11/14 03:09:59;;;;;;;3.90;3.58;;;;;;;2.18;100.00;100974.38;6113921;23;20040;-75
2022/11/14 03:12:26;;;;;;;3.20;3.10;;;;;;;1.56;100.00;100879.41;6088959;23;20037;-74
2022/11/14 03:14:52;;;;;;;4.35;4.07;;;;;;;1.27;100.00;100814.25;6091338;23;20514;-75
2022/11/14 03:17:19;;;;;;;4.55;4.25;;;;;;;2.31;100.00;100978.53;6117575;23;20017;-73
2022/11/14 03:19:45;;;;;;;4.35;4.05;;;;;;;2.28;100.00;100975.94;6104345;23;20009;-75
2022/11/14 03:22:12;;;;;;;3.30;3.20;;;;;;;1.96;100.00;100925.47;6087678;23;20029;-74
2022/11/14 03:24:38;;;;;;;3.50;3.30;;;;;;;2.05;100.00;100949.53;6110232;23;20620;-74
2022/11/14 03:27:04;;;;;;;3.60;3.40;;;;;;;2.20;100.00;100970.03;6068162;23;20376;-73
2022/11/14 03:29:31;;;;;;;3.88;3.67;;;;;;;1.37;100.00;100833.94;6109632;23;20027;-75
2022/11/14 03:31:57;;;;;;;3.55;3.35;;;;;;;1.37;100.00;100829.63;6089319;23;20579;-74
2022/11/14 03:34:24;;;;;;;3.60;3.40;;;;;;;2.25;100.00;100968.25;6083053;23;20088;-74
2022/11/14 03:36:50;;;;;;;3.58;3.38;;;;;;;2.30;100.00;100966.44;6113492;23;20013;-72
2022/11/14 03:39:17;;;;;;;4.18;3.90;;;;;;;1.70;100.00;100860.25;6116548;23;20091;-74
2022/11/14 03:41:43;;;;;;;3.88;3.67;;;;;;;2.40;100.00;100999.09;6090351;23;20203;-73
2022/11/14 03:44:09;;;;;;;3.45;3.35;;;;;;;2.40;100.00;100967.16;6093931;23;20036;-73
2022/11/14 03:46:36;;;;;;;4.60;4.25;;;;;;;1.76;100.00;100874.00;6094147;23;20021;-73
2022/11/14 03:49:02;;;;;;;4.75;4.32;;;;;;;1.29;100.00;100807.34;6091324;23;20041;-73
2022/11/14 03:51:28;;;;;;;4.75;4.45;;;;;;;1.82;100.00;100898.06;6096135;23;20112;-73
2022/11/14 03:53:55;;;;;;;4.38;4.07;;;;;;;2.27;100.00;100971.66;6110920;23;20018;-73
2022/11/14 03:56:21;;;;;;;3.67;3.50;;;;;;;1.81;100.00;100884.28;6090342;23;20080;-75
2022/11/14 03:58:54;;;;;;;16.25;15.45;;;;;;;2.31;100.00;100944.00;6001802;23;20373;-73
2022/11/14 04:01:20;;;;;;;5.47;3.53;;;;;;;2.63;100.00;100956.47;6084362;23;21448;-74
2022/11/14 04:03:47;;;;;;;3.22;3.13;;;;;;;2.06;100.00;100852.88;6095565;23;20033;-74
2022/11/14 04:06:14;;;;;;;3.55;3.30;;;;;;;2.73;100.00;100960.63;6091942;23;20030;-74
2022/11/14 04:08:40;;;;;;;3.83;3.63;;;;;;;2.77;100.00;100961.44;6088950;23;20727;-74
2022/11/14 04:11:07;;;;;;;3.65;3.45;;;;;;;2.10;100.00;100862.28;6122338;23;20017;-74
2022/11/14 04:13:33;;;;;;;4.75;4.45;;;;;;;2.24;100.00;100885.41;6088683;23;20398;-74
2022/11/14 04:15:59;;;;;;;3.58;3.38;;;;;;;2.77;100.00;100959.72;6117186;23;20612;-73
2022/11/14 04:18:26;;;;;;;3.70;3.50;;;;;;;1.79;100.00;100806.66;6110095;23;20154;-74
2022/11/14 04:20:53;;;;;;;4.20;3.92;;;;;;;1.82;100.00;100804.91;6095429;23;20025;-73
2022/11/14 04:23:19;;;;;;;3.50;3.30;;;;;;;2.59;100.00;100919.38;6088215;23;20091;-74
2022/11/14 04:25:46;;;;;;;3.90;3.65;;;;;;;2.21;100.00;100852.66;6121374;23;20652;-74
2022/11/14 04:28:13;;;;;;;3.67;3.47;;;;;;;2.88;100.00;100959.53;6092920;23;20018;-75
2022/11/14 04:30:40;;;;;;;3.20;3.10;;;;;;;3.20;100.00;100977.13;6111493;23;20384;-74
2022/11/14 04:33:06;;;;;;;3.83;3.53;;;;;;;3.10;100.00;100952.25;6116480;23;20139;-73
2022/11/14 04:35:33;;;;;;;3.60;3.45;;;;;;;3.23;100.00;100981.44;6072753;23;20021;-73
2022/11/14 04:37:59;;;;;;;4.85;4.28;;;;;;;2.42;100.00;100871.31;6096301;23;20041;-73
2022/11/14 04:40:26;;;;;;;4.07;3.78;;;;;;;3.11;100.00;100985.09;6097858;23;20038;-73
2022/11/14 04:42:52;;;;;;;4.30;4.00;;;;;;;3.13;100.00;100991.09;6111094;23;20021;-73
2022/11/14 04:45:19;;;;;;;3.17;3.05;;;;;;;3.11;100.00;100981.66;6123981;23;20056;-73
2022/11/14 04:47:45;;;;;;;4.20;4.00;;;;;;;2.54;100.00;100910.81;6107999;23;20081;-74
2022/11/14 04:50:12;;;;;;;3.72;3.50;;;;;;;2.90;100.00;100982.84;6095104;23;20021;-73
2022/11/14 04:52:38;;;;;;;3.53;3.38;;;;;;;2.46;100.00;100904.06;6109956;23;20029;-73
2022/11/14 04:55:04;;;;;;;4.32;4.00;;;;;;;2.62;100.00;100931.44;6090246;23;20033;-72
2022/11/14 04:57:31;;;;;;;3.40;3.20;;;;;;;2.86;100.00;100950.06;6110640;23;20036;-73
2022/11/14 04:59:57;;;;;;;3.85;3.65;;;;;;;3.02;100.00;100974.84;6115588;23;20025;-75
2022/11/14 05:02:24;;;;;;;3.30;3.20;;;;;;;2.83;100.00;100947.50;6090586;23;20028;-74
2022/11/14 05:04:50;;;;;;;4.10;3.58;;;;;;;2.68;100.00;100922.72;6116974;23;20619;-72
2022/11/14 05:07:16;;;;;;;5.43;3.90;;;;;;;2.28;100.00;100869.78;6084537;23;20736;-73
2022/11/14 05:09:43;;;;;;;3.53;3.33;;;;;;;2.02;100.00;100838.25;6088958;23;20059;-74
2022/11/14 05:12:09;;;;;;;4.10;3.88;;;;;;;2.67;100.00;100962.47;6092733;23;20024;-74
2022/11/14 05:14:36;;;;;;;5.78;4.00;;;;;;;2.60;100.00;100961.69;6111067;23;20030;-72
2022/11/14 05:17:02;;;;;;;4.80;4.50;;;;;;;2.68;100.00;100961.59;6086779;23;20029;-74
2022/11/14 05:19:29;;;;;;;3.30;3.10;;;;;;;2.48;100.00;100929.06;6116379;23;20025;-74
2022/11/14 05:21:55;;;;;;;3.20;3.00;;;;;;;2.59;100.00;100954.81;6111231;23;20087;-73
2022/11/14 05:24:22;;;;;;;3.60;3.40;;;;;;;2.55;100.00;100945.38;6063948;23;20054;-74
2022/11/14 05:26:48;;;;;;;3.53;3.42;;;;;;;2.31;100.00;100908.59;6112998;23;20017;-72
2022/11/14 05:29:15;;;;;;;6.90;3.38;;;;;;;2.32;100.00;100909.44;6114606;23;20041;-74
2022/11/14 05:31:41;;;;;;;3.00;2.90;;;;;;;2.45;100.00;100925.69;6109653;23;20015;-75
2022/11/14 05:34:08;;;;;;;3.88;3.65;;;;;;;1.84;100.00;100824.69;6114267;23;20037;-74
2022/11/14 05:36:34;;;;;;;4.28;3.33;;;;;;;2.39;100.00;100919.69;6090865;23;20036;-74
2022/11/14 05:39:01;;;;;;;3.33;3.13;;;;;;;2.22;100.00;100885.41;6068607;23;20448;-74
2022/11/14 05:41:27;;;;;;;5.78;4.18;;;;;;;2.53;100.00;100903.94;6091333;23;20048;-73
2022/11/14 05:43:54;;;;;;;3.42;3.25;;;;;;;2.45;100.00;100899.78;6091772;23;20025;-73
2022/11/14 05:46:20;;;;;;;3.47;3.28;;;;;;;2.58;100.00;100904.72;6091471;23;20025;-73
2022/11/14 05:48:46;;;;;;;3.35;3.20;;;;;;;2.03;100.00;100811.50;6090363;23;20424;-73
2022/11/14 05:51:13;;;;;;;3.25;3.05;;;;;;;2.06;100.00;100790.75;6119395;23;20033;-74
2022/11/14 05:53:40;;;;;;;3.85;3.65;;;;;;;2.57;100.00;100884.03;6117763;23;20104;-73
2022/11/14 05:56:10;;;;;;;3.63;3.30;;;;;;;2.23;100.00;100796.50;6091810;23;20025;-72
2022/11/14 05:58:37;;;;;;;4.70;4.40;;;;;;;2.85;100.00;100888.75;6115468;23;20032;-74
2022/11/14 06:01:09;;;;;;;3.97;3.78;;;;;;;2.79;100.00;100869.81;6089487;23;20701;-74
2022/11/14 06:03:38;;;;;;;3.60;3.40;;;;;;;2.38;100.00;100795.38;6117652;23;20036;-74
2022/11/14 06:06:07;;;;;;;3.42;3.28;;;;;;;2.93;100.00;100885.13;6100864;23;20014;-73
2022/11/14 06:08:34;;;;;;;4.50;4.18;;;;;;;2.67;100.00;100840.69;6112718;23;20025;-72
2022/11/14 06:11:08;;;;;;;3.90;3.70;;;;;;;2.77;100.00;100856.03;6095937;23;20070;-73
2022/11/14 06:13:35;;;;;;;3.60;3.40;;;;;;;2.85;100.00;100881.84;6107661;23;20034;-75
2022/11/14 06:16:05;;;;;;;4.47;3.10;;;;;;;2.90;100.00;100861.00;6090809;23;20034;-73
2022/11/14 06:18:32;;;;;;;3.47;3.28;;;;;;;3.00;100.00;100871.16;6118142;23;20046;-75
2022/11/14 06:21:11;;;;;;;3.55;3.35;;;;;;;3.17;100.00;100890.78;6086793;23;20084;-73
2022/11/14 06:23:38;;;;;;;3.67;3.53;;;;;;;2.72;100.00;100812.94;6118754;23;20088;-73
2022/11/14 06:26:07;;;;;;;9.45;3.80;;;;;;;3.22;100.00;100901.91;6088574;23;20080;-72
2022/11/14 06:28:33;;;;;;;4.15;3.95;;;;;;;3.31;100.00;100893.13;6108989;23;20361;-74
2022/11/14 06:31:01;;;;;;;3.45;3.35;;;;;;;2.68;100.00;100775.88;6114194;23;20241;-74
2022/11/14 06:33:33;;;;;;;4.50;4.20;;;;;;;3.26;100.00;100866.41;6090281;23;20021;-73
2022/11/14 06:36:01;;;;;;;4.00;3.72;;;;;;;3.20;100.00;100836.25;6117189;23;20114;-73
2022/11/14 06:38:30;;;;;;;4.07;3.88;;;;;;;3.28;100.00;100844.72;6095849;23;20025;-74
2022/11/14 06:41:05;;;;;;;4.57;4.07;;;;;;;3.60;100.00;100879.53;6118476;23;20574;-73
2022/11/14 06:43:36;;;;;;;3.88;3.53;;;;;;;3.78;100.00;100888.69;6087838;23;20033;-73
2022/11/14 06:46:04;;;;;;;4.35;4.05;;;;;;;3.85;100.00;100898.06;6089513;23;20018;-72
2022/11/14 06:48:31;;;;;;;6.20;4.90;;;;;;;3.82;100.00;100900.72;6096237;23;20037;-72
2022/11/14 06:50:59;;;;;;;5.22;4.90;;;;;;;3.79;100.00;100896.47;6107041;23;20021;-73
2022/11/14 06:53:31;;;;;;;4.72;4.25;;;;;;;3.86;100.00;100904.97;6079647;23;20038;-74
2022/11/14 06:56:03;;;;;;;4.20;4.00;;;;;;;3.89;100.00;100915.28;6112429;23;20384;-73
2022/11/14 06:58:32;;;;;;;12.50;4.30;;;;;;;3.90;100.00;100917.00;6107235;23;20037;-73
2022/11/14 07:01:06;;;;;;;11.90;4.28;;;;;;;3.98;100.00;100929.81;6090598;23;20025;-76
2022/11/14 07:03:33;;;;;;;4.18;3.97;;;;;;;4.00;100.00;100928.88;6115904;23;20083;-75
2022/11/14 07:06:00;;;;;;;4.45;4.15;;;;;;;3.96;100.00;100937.63;6068616;23;20462;-74
2022/11/14 07:08:27;;;;;;;6.18;4.38;;;;;;;3.20;100.00;100826.72;6091845;23;20064;-75
2022/11/14 07:11:01;;;;;;;4.05;3.80;;;;;;;3.93;100.00;100932.53;6092669;23;20017;-75
2022/11/14 07:13:30;;;;;;;4.90;4.38;;;;;;;3.92;100.00;100925.59;6084193;23;20049;-76
2022/11/14 07:15:56;;;;;;;4.88;4.43;;;;;;;3.20;100.00;100820.69;6093296;23;20025;-76
2022/11/14 07:18:23;;;;;;;4.15;3.85;;;;;;;3.83;100.00;100933.59;6110721;23;20034;-75
2022/11/14 07:20:56;;;;;;;4.35;4.07;;;;;;;3.47;100.00;100894.53;6094512;23;20101;-75
2022/11/14 07:23:22;;;;;;;5.35;4.95;;;;;;;3.11;100.00;100858.03;6080013;23;20064;-75
2022/11/14 07:25:49;;;;;;;4.38;3.75;;;;;;;3.15;100.00;100825.97;6117508;23;20021;-75
2022/11/14 07:28:15;;;;;;;5.60;5.13;;;;;;;3.27;100.00;100840.44;6086253;23;20659;-76
2022/11/14 07:30:42;;;;;;;4.60;4.15;;;;;;;3.20;100.00;100833.66;6108426;23;20087;-75
2022/11/14 07:33:10;;;;;;;5.97;3.88;;;;;;;3.79;100.00;100877.44;6091533;23;20025;-77
2022/11/14 07:35:39;;;;;;;4.70;4.40;;;;;;;4.12;100.00;100900.94;6090141;23;20107;-76
2022/11/14 07:38:05;;;;;;;4.47;3.97;;;;;;;3.43;100.00;100757.09;6102341;23;20559;-76
2022/11/14 07:40:32;;;;;;;8.07;6.45;;;;;;;4.20;100.00;100879.09;6111874;23;20041;-76
2022/11/14 07:43:00;;;;;;;5.72;4.97;;;;;;;4.49;100.00;100898.38;6082630;23;20030;-75
2022/11/14 07:45:28;;;;;;;10.70;5.05;;;;;;;4.90;100.00;100935.50;6117463;23;20021;-76
2022/11/14 07:47:56;;;;;;;6.78;5.43;;;;;;;4.99;100.00;100935.28;6092361;23;20034;-75
2022/11/14 07:50:27;;;;;;;6.30;5.80;;;;;;;4.98;100.00;100924.91;6092782;23;20660;-76
2022/11/14 07:52:57;;;;;;;6.38;5.75;;;;;;;4.90;100.00;100891.28;6096931;23;20014;-75
2022/11/14 07:55:25;;;;;;;5.80;5.40;;;;;;;5.27;100.00;100963.19;6092565;23;20025;-75
2022/11/14 07:57:53;;;;;;;6.35;5.82;;;;;;;4.73;100.00;100868.31;6097147;23;20038;-76
2022/11/14 08:00:20;;;;;;;8.52;5.47;;;;;;;5.22;100.00;100922.56;6077236;23;20038;-75
2022/11/14 08:02:47;;;;;;;12.18;6.00;;;;;;;5.40;100.00;100940.28;6090987;23;20026;-75
2022/11/14 08:05:14;;;;;;;5.85;5.47;;;;;;;5.52;100.00;100941.72;6118750;23;20013;-74
2022/11/14 08:07:40;;;;;;;9.30;6.20;;;;;;;4.96;100.00;100851.25;6051647;23;20049;-77
2022/11/14 08:10:10;;;;;;;7.13;6.50;;;;;;;5.57;100.00;100940.69;6070590;23;20041;-75
2022/11/14 08:12:40;;;;;;;8.65;5.22;;;;;;;5.36;100.00;100904.81;6089757;23;20745;-77
2022/11/14 08:15:08;;;;;;;6.38;5.78;;;;;;;5.66;100.00;100952.59;6087375;23;20257;-75
2022/11/14 08:17:39;;;;;;;4.90;4.55;;;;;;;5.40;100.00;100917.72;6068960;23;20022;-77
2022/11/14 08:20:08;;;;;;;7.00;6.32;;;;;;;5.44;100.00;100934.09;6106222;23;20033;-76
2022/11/14 08:22:34;;;;;;;6.88;5.43;;;;;;;5.77;100.00;100947.06;6095300;23;20013;-76
2022/11/14 08:25:01;;;;;;;9.60;7.03;;;;;;;5.78;100.00;100954.00;6119397;23;20022;-75
2022/11/14 08:27:28;;;;;;;8.32;6.47;;;;;;;4.98;100.00;100832.13;6067011;23;20018;-75
2022/11/14 08:29:54;;;;;;;7.22;6.20;;;;;;;5.79;100.00;100950.47;6090144;23;20724;-75
2022/11/14 08:32:21;;;;;;;7.25;6.75;;;;;;;5.81;100.00;100951.28;6073777;23;20415;-76
2022/11/14 08:34:48;;;;;;;6.00;5.03;;;;;;;5.84;100.00;100948.63;6117206;23;20033;-75
2022/11/14 08:37:14;;;;;;;5.97;5.45;;;;;;;5.36;100.00;100865.78;6070996;23;20335;-75
2022/11/14 08:39:41;;;;;;;7.45;6.05;;;;;;;5.89;100.00;100954.53;6068921;23;20029;-75
2022/11/14 08:42:10;;;;;;;6.97;6.28;;;;;;;5.55;100.00;100907.75;6069170;23;20089;-75
2022/11/14 08:44:37;;;;;;;8.30;6.32;;;;;;;5.90;100.00;100964.06;6121779;23;20025;-75
2022/11/14 08:47:04;;;;;;;5.82;5.43;;;;;;;5.90;100.00;100965.81;6091229;23;20015;-74
2022/11/14 08:49:30;;;;;;;7.15;6.18;;;;;;;5.91;100.00;100954.50;6101979;23;20041;-76
2022/11/14 08:51:57;;;;;;;6.18;5.78;;;;;;;5.65;100.00;100908.38;6073597;23;20009;-75
2022/11/14 08:54:24;;;;;;;7.05;6.03;;;;;;;5.90;100.00;100945.84;6086539;23;20057;-75
2022/11/14 08:56:50;;;;;;;9.80;7.22;;;;;;;5.26;100.00;100839.16;6093669;23;20017;-74
2022/11/14 08:59:17;;;;;;;6.47;5.32;;;;;;;5.59;100.00;100897.25;6122546;23;20052;-75
2022/11/14 09:01:44;;;;;;;8.65;6.90;;;;;;;5.63;100.00;100907.56;6066934;23;20022;-75
2022/11/14 09:04:11;;;;;;;10.23;5.28;;;;;;;5.95;100.00;100966.56;6091600;23;20063;-75
2022/11/14 09:06:37;;;;;;;8.60;6.85;;;;;;;6.03;100.00;100956.78;6079516;23;20029;-75
2022/11/14 09:09:04;;;;;;;5.85;5.45;;;;;;;6.05;100.00;100956.72;6095603;23;20053;-74
2022/11/14 09:11:30;;;;;;;7.32;6.72;;;;;;;5.84;100.00;100947.78;6106135;23;20458;-74
2022/11/14 09:13:57;;;;;;;9.18;6.57;;;;;;;5.49;100.00;100892.31;6094969;23;20675;-76
2022/11/14 09:16:24;;;;;;;5.35;4.95;;;;;;;6.04;100.00;100968.91;6059997;23;20094;-74
2022/11/14 09:18:51;;;;;;;10.55;6.05;;;;;;;5.69;100.00;100909.97;6114261;23;20017;-77
2022/11/14 09:21:18;;;;;;;11.30;7.00;;;;;;;5.93;100.00;100950.97;6113354;23;20014;-74
2022/11/14 09:23:47;;;;;;;8.85;7.75;;;;;;;5.91;100.00;100957.09;6093665;23;20041;-75
2022/11/14 09:26:14;;;;;;;12.00;7.20;;;;;;;6.10;100.00;100967.88;6092754;23;20730;-75
2022/11/14 09:28:41;;;;;;;6.40;5.90;;;;;;;5.24;100.00;100821.91;6119639;23;20044;-75
2022/11/14 09:31:10;;;;;;;10.35;6.28;;;;;;;5.08;100.00;100790.25;6126249;23;20657;-75
2022/11/14 09:33:37;;;;;;;7.38;5.25;;;;;;;6.17;100.00;100970.28;6065852;23;20042;-75
2022/11/14 09:36:06;;;;;;;6.88;6.32;;;;;;;5.92;100.00;100920.59;6095142;23;20056;-75
2022/11/14 09:38:33;;;;;;;8.52;5.80;;;;;;;5.89;100.00;100912.84;6091786;23;20100;-75
2022/11/14 09:41:07;;;;;;;8.40;5.97;;;;;;;6.19;100.00;100971.09;6119537;23;20072;-75
2022/11/14 09:43:39;;;;;;;7.68;6.30;;;;;;;6.21;100.00;100968.41;6094343;23;20639;-73
2022/11/14 09:46:17;;;;;;;10.45;7.28;;;;;;;6.22;100.00;100967.53;6093189;23;20029;-75
2022/11/14 09:48:44;;;;;;;9.85;5.70;;;;;;;6.22;100.00;100966.69;6117114;23;20044;-75
2022/11/14 09:51:22;;;;;;;13.73;7.05;;;;;;;6.33;100.00;100954.16;6097735;23;20046;-75
2022/11/14 09:54:09;;;;;;;8.13;6.10;;;;;;;6.34;100.00;100961.94;6115750;23;20020;-75
2022/11/14 09:56:35;;;;;;;7.30;6.50;;;;;;;5.74;100.00;100837.81;6100134;23;20051;-76
2022/11/14 09:59:02;;;;;;;7.95;5.85;;;;;;;5.95;100.00;100863.25;6064388;23;20015;-75
2022/11/14 10:01:59;;;;;;;9.00;6.28;;;;;;;5.51;100.00;100773.38;6092697;23;20052;-76
2022/11/14 10:04:50;;;;;;;6.93;6.28;;;;;;;6.55;100.00;100939.56;6108323;23;20033;-75
2022/11/14 10:07:37;;;;;;;8.05;7.15;;;;;;;6.68;100.00;100945.25;6090702;23;20077;-74
2022/11/14 10:10:17;;;;;;;6.93;6.20;;;;;;;6.76;100.00;100955.44;6115483;23;20100;-74
2022/11/14 10:12:57;;;;;;;12.10;6.95;;;;;;;6.82;100.00;100944.81;6096327;23;20014;-75
2022/11/14 10:15:32;;;;;;;6.63;6.13;;;;;;;6.90;100.00;100958.44;6105802;23;20052;-75
2022/11/14 10:18:14;;;;;;;12.32;7.95;;;;;;;6.89;100.00;100951.50;6060065;23;20514;-76
2022/11/14 10:20:51;;;;;;;6.45;5.95;;;;;;;6.83;100.00;100927.38;6119040;23;20014;-76
2022/11/14 10:23:46;;;;;;;8.02;6.85;;;;;;;7.00;100.00;100951.16;6091780;23;20029;-77
2022/11/14 10:26:37;;;;;;;7.70;6.95;;;;;;;7.09;100.00;100963.06;6092598;23;20084;-75
2022/11/14 10:29:30;;;;;;;9.18;6.68;;;;;;;7.04;100.00;100952.78;6103269;23;20041;-75
2022/11/14 10:32:17;;;;;;;7.78;7.07;;;;;;;7.14;100.00;100950.72;6108374;23;20569;-74
2022/11/14 10:34:53;;;;;;;8.02;7.07;;;;;;;6.36;100.00;100842.84;6098617;23;20071;-76
2022/11/14 10:37:25;;;;;;;10.18;6.88;;;;;;;7.26;100.00;100959.88;6081776;23;20030;-76
2022/11/14 10:39:56;;;;;;;7.90;7.10;;;;;;;7.20;100.00;100942.66;6119633;23;20028;-73
2022/11/14 10:42:35;;;;;;;10.32;6.90;;;;;;;6.89;100.00;100877.63;6091782;23;20091;-74
2022/11/14 10:45:10;;;;;;;9.23;7.65;;;;;;;7.38;100.00;100934.19;6116034;23;20031;-75
2022/11/14 10:47:43;;;;;;;12.10;8.27;;;;;;;7.22;100.00;100895.59;6082954;23;20760;-76
2022/11/14 10:50:27;;;;;;;7.75;7.10;;;;;;;6.82;100.00;100822.19;6077143;23;20550;-75
2022/11/14 10:53:00;;;;;;;7.00;6.38;;;;;;;7.38;100.00;100947.25;6118438;23;20478;-74
2022/11/14 10:55:28;;;;;;;8.00;6.50;;;;;;;7.56;100.00;100947.53;6118115;23;20038;-76
2022/11/14 10:58:14;;;;;;;10.48;7.30;;;;;;;7.45;100.00;100905.25;6093059;23;20021;-75
2022/11/14 11:00:41;;;;;;;15.48;8.40;;;;;;;7.49;100.00;100907.69;6095075;23;20540;-75
2022/11/14 11:03:10;;;;;;;8.05;7.22;;;;;;;7.32;100.00;100910.91;6066086;23;20018;-76
2022/11/14 11:05:59;;;;;;;8.15;6.88;;;;;;;7.17;100.00;100869.69;6117363;23;20032;-76
2022/11/14 11:11:38;;;;;;;9.00;7.05;;;;;;;7.63;100.00;100914.19;5998027;23;20051;-75
2022/11/14 11:14:05;;;;;;;6.03;5.63;;;;;;;6.48;100.00;100713.84;5997004;23;20039;-75
2022/11/14 11:16:33;;;;;;;8.50;6.97;;;;;;;7.36;100.00;100818.53;6041018;23;20022;-74
2022/11/14 11:19:24;;;;;;;18.52;7.05;;;;;;;8.05;100.00;100934.41;6086210;23;20032;-75
2022/11/14 11:21:51;;;;;;;8.45;6.82;;;;;;;8.03;100.00;100937.06;6089425;23;20033;-76
2022/11/14 11:24:33;;;;;;;7.82;7.07;;;;;;;8.04;100.00;100949.25;6071378;23;20032;-76
2022/11/14 11:27:24;;;;;;;10.40;7.95;;;;;;;8.07;100.00;100932.59;6115537;23;20541;-74
2022/11/14 11:30:24;;;;;;;7.97;6.38;;;;;;;8.19;100.00;100932.09;6088063;23;20014;-75
2022/11/14 11:32:51;;;;;;;9.20;8.10;;;;;;;7.72;100.00;100838.09;6062319;23;20044;-76
2022/11/14 11:35:17;;;;;;;10.25;7.43;;;;;;;8.03;100.00;100863.88;6095407;23;20048;-74
2022/11/14 11:37:54;;;;;;;10.05;6.90;;;;;;;7.88;100.00;100870.56;6093242;23;20018;-75